Time;durP1;ratioP1;P1;durP2;ratioP2;P2;SDS_P1;SDS_P2;PMS_P1;PMS_P2;Temp;Humidity;BMP_temperature;BMP_pressure;BME280_temperature;BME280_humidity;BME280_pressure;Samples;Min_cycle;Max_cycle;Signal;HPM_P1;HPM_P2
2023/01/08 00:01:03;;;;;;;11.88;2.25;;;;;;;-146.73;58.30;45754.91;6177414;23;20024;-92
2023/01/08 00:03:29;;;;;;;11.82;2.15;;;;;;;-146.73;59.13;45774.63;6178108;23;20005;-91
2023/01/08 00:05:54;;;;;;;12.30;2.08;;;;;;;-146.73;59.02;45752.94;6151483;23;20005;-91
2023/01/08 00:08:20;;;;;;;12.43;2.15;;;;;;;-146.73;58.89;45772.66;6150271;23;20020;-92
2023/01/08 00:10:54;;;;;;;15.32;2.20;;;;;;;-146.73;58.22;45780.56;6150216;23;20023;-90
2023/01/08 00:13:19;;;;;;;15.70;2.30;;;;;;;-146.73;57.84;45810.16;6177847;23;20005;-90
2023/01/08 00:15:45;;;;;;;11.38;2.08;;;;;;;-146.73;57.91;45798.31;6148748;23;20013;-93
2023/01/08 00:18:12;;;;;;;16.45;2.35;;;;;;;-146.73;60.16;45733.19;6147706;23;20386;-91
2023/01/08 00:20:42;;;;;;;13.40;1.92;;;;;;;-146.73;59.05;45823.94;6177032;23;20012;-92
2023/01/08 00:23:16;;;;;;;14.50;2.53;;;;;;;-146.73;59.05;45794.34;6150312;23;20084;-91
2023/01/08 00:25:42;;;;;;;13.80;3.05;;;;;;;-146.73;57.42;45845.66;6177908;23;20415;-93
2023/01/08 00:28:08;;;;;;;12.82;2.30;;;;;;;-146.73;57.40;45818.03;6149819;23;20459;-92
2023/01/08 00:30:35;;;;;;;12.25;2.30;;;;;;;-146.73;57.38;45790.41;6177513;23;20024;-91
2023/01/08 00:33:01;;;;;;;22.02;2.70;;;;;;;-146.73;57.70;45772.66;6152953;23;20032;-90
2023/01/08 00:35:27;;;;;;;16.30;2.53;;;;;;;-146.73;59.02;45737.16;6152903;23;20009;-92
2023/01/08 00:37:59;;;;;;;21.58;2.58;;;;;;;-146.73;58.79;45754.91;6153610;23;20511;-91
2023/01/08 00:40:25;;;;;;;19.27;2.90;;;;;;;-146.73;59.26;45810.16;6152444;23;20012;-91
2023/01/08 00:42:50;;;;;;;15.15;2.25;;;;;;;-146.73;58.49;45768.72;6177235;23;20017;-91
2023/01/08 00:45:16;;;;;;;13.90;2.20;;;;;;;-146.73;58.30;45816.06;6177706;23;20012;-91
2023/01/08 00:47:42;;;;;;;16.98;2.90;;;;;;;-146.73;57.66;45845.66;6150268;23;20013;-92
2023/01/08 00:50:08;;;;;;;13.15;2.50;;;;;;;-146.73;57.21;45847.63;6148179;23;20013;-92
2023/01/08 00:52:34;;;;;;;17.15;2.85;;;;;;;-146.73;57.45;45808.16;6152386;23;20023;-92
2023/01/08 00:54:59;;;;;;;17.35;2.00;;;;;;;-146.73;56.72;45833.81;6151007;23;20100;-90
2023/01/08 00:57:25;;;;;;;17.63;4.15;;;;;;;-146.73;55.70;45896.94;6176600;23;20092;-90
2023/01/08 00:59:50;;;;;;;12.35;2.50;;;;;;;-146.73;58.32;45770.69;6148636;23;20019;-91
2023/01/08 01:02:15;;;;;;;15.98;2.60;;;;;;;-146.73;56.95;45827.91;6173459;23;20016;-92
2023/01/08 01:04:41;;;;;;;15.85;3.10;;;;;;;-146.73;66.23;45833.81;6148012;23;20013;-92
2023/01/08 01:07:06;;;;;;;16.63;2.67;;;;;;;-146.73;65.73;45825.94;6148116;23;20005;-91
2023/01/08 01:09:32;;;;;;;17.05;2.38;;;;;;;-146.73;63.69;45889.06;6147683;23;20016;-91
2023/01/08 01:11:58;;;;;;;18.60;2.95;;;;;;;-146.73;62.73;45816.06;6151755;23;20454;-91
2023/01/08 01:14:24;;;;;;;16.52;2.65;;;;;;;-146.73;62.58;45829.88;6178582;23;20036;-90
2023/01/08 01:16:49;;;;;;;15.52;2.30;;;;;;;-146.73;62.02;45806.19;6149624;23;20013;-90
2023/01/08 01:19:15;;;;;;;19.17;2.47;;;;;;;-146.73;62.54;45802.25;6152101;23;20399;-90
2023/01/08 01:21:41;;;;;;;20.90;3.85;;;;;;;-146.73;62.10;45796.34;6151816;23;20012;-91
2023/01/08 01:24:09;;;;;;;16.52;2.55;;;;;;;-146.73;60.70;45843.69;6150889;23;20008;-91
2023/01/08 01:26:35;;;;;;;16.65;2.92;;;;;;;-146.73;61.13;45814.09;6151171;23;20009;-92
2023/01/08 01:29:01;;;;;;;13.05;2.28;;;;;;;-146.73;61.13;45835.78;6178176;23;20087;-91
2023/01/08 01:31:29;;;;;;;19.90;2.50;;;;;;;-146.73;60.83;45814.09;6175903;23;20033;-91
2023/01/08 01:33:54;;;;;;;15.02;2.53;;;;;;;-146.73;60.97;45758.84;6148496;23;20001;-91
2023/01/08 01:36:22;;;;;;;16.50;2.88;;;;;;;-146.73;62.18;45788.44;6151489;23;20020;-91
2023/01/08 01:38:50;;;;;;;18.20;2.72;;;;;;;-146.73;63.52;45776.59;6148725;23;20552;-91
2023/01/08 01:41:24;;;;;;;17.02;2.40;;;;;;;-146.73;63.40;45723.34;6150200;23;20066;-91
2023/01/08 01:43:50;;;;;;;18.55;2.80;;;;;;;-146.73;61.76;45823.94;6151620;23;20095;-91
2023/01/08 01:46:37;;;;;;;20.05;3.13;;;;;;;-146.73;62.48;45741.09;6175123;23;20096;-91
2023/01/08 01:49:25;;;;;;;13.65;2.55;;;;;;;-146.73;63.09;45788.44;6150448;23;20043;-90
2023/01/08 01:51:55;;;;;;;15.35;2.20;;;;;;;-146.73;62.52;45792.38;6174048;23;20009;-92
2023/01/08 01:54:25;;;;;;;14.10;2.22;;;;;;;-146.73;63.00;45758.84;6145765;23;20071;-92
2023/01/08 01:56:51;;;;;;;17.38;2.60;;;;;;;-146.73;63.38;45762.78;6172467;23;20017;-91
2023/01/08 01:59:16;;;;;;;18.50;2.67;;;;;;;-146.73;63.64;45727.28;6147382;23;20465;-91
2023/01/08 02:01:42;;;;;;;18.85;2.47;;;;;;;-146.73;63.77;45796.34;6144661;23;20454;-92
2023/01/08 02:04:12;;;;;;;16.45;2.58;;;;;;;-146.73;63.12;45800.28;6144920;23;20017;-91
2023/01/08 02:06:45;;;;;;;14.82;2.63;;;;;;;-146.73;63.83;45758.84;6170852;23;20316;-92
2023/01/08 02:09:26;;;;;;;14.02;2.50;;;;;;;-146.73;62.53;45833.81;6146657;23;20777;-91
2023/01/08 02:15:00;;;;;;;11.68;1.92;;;;;;;-146.73;62.32;45754.91;6177044;23;20024;-92
2023/01/08 02:17:53;;;;;;;12.10;2.35;;;;;;;-146.73;62.15;45804.22;6150688;23;20021;-92
2023/01/08 02:20:34;;;;;;;16.63;2.90;;;;;;;-146.73;60.87;45869.31;6085443;23;20009;-93
2023/01/08 02:23:27;;;;;;;19.00;2.63;;;;;;;-146.73;60.46;45802.25;6149980;23;20017;-92
2023/01/08 02:26:26;;;;;;;12.65;1.85;;;;;;;-146.73;60.70;45794.34;6149201;23;20663;-92
2023/01/08 02:28:58;;;;;;;13.43;2.15;;;;;;;-146.73;61.01;45758.84;6146691;23;20016;-92
2023/01/08 02:31:27;;;;;;;15.03;2.10;;;;;;;-146.73;61.35;45754.91;6145609;23;20016;-91
2023/01/08 02:33:53;;;;;;;15.75;2.60;;;;;;;-146.73;61.42;45794.34;6148109;23;20039;-92
2023/01/08 02:36:21;;;;;;;10.07;1.77;;;;;;;-146.73;60.51;45808.16;6148734;23;19997;-92
2023/01/08 02:39:07;;;;;;;12.65;2.17;;;;;;;-146.73;57.93;45908.78;6148329;23;20032;-92
2023/01/08 02:41:57;;;;;;;16.98;2.22;;;;;;;-146.73;58.81;45835.78;6175348;23;20009;-90
2023/01/08 02:45:06;;;;;;;17.15;2.53;;;;;;;-146.73;59.70;45821.97;6148623;23;20324;-93
2023/01/08 02:47:40;;;;;;;15.18;2.45;;;;;;;-146.73;61.66;45741.09;6148413;23;20017;-92
2023/01/08 02:50:17;;;;;;;;;;;;;;;-146.73;60.30;45778.56;6174786;23;20008;-93
2023/01/08 02:52:54;;;;;;;12.80;1.95;;;;;;;-146.73;58.88;45839.72;6149885;23;19915;-92
2023/01/08 02:55:23;;;;;;;14.45;1.77;;;;;;;-146.73;57.82;45952.19;6153046;23;20088;-92
2023/01/08 02:57:49;;;;;;;19.85;2.53;;;;;;;-146.73;60.36;45792.38;6150769;23;20021;-92
2023/01/08 03:05:26;;;;;;;14.27;1.83;;;;;;;-146.73;57.02;45871.31;6203673;23;20327;-93
2023/01/08 03:07:55;;;;;;;10.85;1.85;;;;;;;-146.73;57.78;45831.84;6206449;23;20032;-92
2023/01/08 03:10:25;;;;;;;9.48;1.80;;;;;;;-146.73;56.68;45877.22;6208289;23;20456;-94
2023/01/08 03:13:03;;;;;;;12.30;1.80;;;;;;;-146.73;55.29;45944.28;6181346;23;20024;-93
2023/01/08 03:15:53;;;;;;;10.55;1.90;;;;;;;-146.73;55.46;45881.16;6180204;23;20001;-94
2023/01/08 03:18:24;;;;;;;10.73;1.77;;;;;;;-146.73;56.06;45863.41;6205519;23;20000;-94
2023/01/08 03:20:50;;;;;;;10.35;1.67;;;;;;;-146.73;54.38;45904.84;6180909;23;20066;-93
2023/01/08 03:23:18;;;;;;;10.48;1.50;;;;;;;-146.73;55.13;45922.59;6177348;23;20021;-94
2023/01/08 03:25:46;;;;;;;8.85;1.85;;;;;;;-146.73;56.34;45857.50;6175783;23;20087;-93
2023/01/08 03:28:18;;;;;;;6.40;1.20;;;;;;;-146.73;55.04;45869.31;6176615;23;20217;-94
2023/01/08 03:30:46;;;;;;;10.35;1.75;;;;;;;-146.73;56.50;45837.75;6175447;23;20013;-95
2023/01/08 03:33:13;;;;;;;14.70;1.55;;;;;;;-146.73;55.98;45845.66;6175910;23;20466;-96
2023/01/08 03:35:42;;;;;;;10.65;1.80;;;;;;;-146.73;55.12;45934.44;6202247;23;20004;-96
2023/01/08 03:38:39;;;;;;;9.60;1.20;;;;;;;-146.73;56.54;45833.81;6178152;23;20012;-95
2023/01/08 03:41:17;;;;;;;11.52;2.30;;;;;;;-146.73;54.75;45904.84;6175861;23;20017;-96
2023/01/08 03:43:43;;;;;;;9.50;1.58;;;;;;;-146.73;55.65;45831.84;6204786;23;20009;-96
2023/01/08 03:46:15;;;;;;;14.57;2.00;;;;;;;-146.73;56.58;45877.22;6177783;23;20620;-95
2023/01/08 03:48:42;;;;;;;13.65;1.33;;;;;;;-146.73;56.30;45877.22;6181107;23;20012;-96
2023/01/08 03:51:09;;;;;;;11.15;1.88;;;;;;;-146.73;55.22;45867.34;6176148;23;20008;-95
2023/01/08 03:53:34;;;;;;;10.75;1.70;;;;;;;-146.73;55.90;45784.50;6178711;23;20007;-95
2023/01/08 03:56:00;;;;;;;13.52;2.30;;;;;;;-146.73;58.62;45766.75;6180807;23;19997;-96
2023/01/08 03:58:25;;;;;;;12.45;1.85;;;;;;;-146.73;60.40;45774.63;6208217;23;20087;-96
2023/01/08 04:00:51;;;;;;;16.98;2.20;;;;;;;-146.73;61.18;45733.19;6181896;23;20517;-94
2023/01/08 04:03:17;;;;;;;7.82;1.55;;;;;;;-146.73;61.12;45764.78;6208780;23;20019;-95
2023/01/08 04:05:42;;;;;;;10.60;1.73;;;;;;;-146.73;57.04;45877.22;6182365;23;20009;-95
2023/01/08 04:08:08;;;;;;;7.63;1.48;;;;;;;-146.73;59.56;45766.75;6183024;23;20062;-95
2023/01/08 04:10:33;;;;;;;7.00;1.10;;;;;;;-146.73;61.45;45713.47;6207808;23;20099;-95
2023/01/08 04:12:59;;;;;;;10.30;1.48;;;;;;;-146.73;61.30;45695.72;6179217;23;20629;-95
2023/01/08 04:15:24;;;;;;;8.23;1.38;;;;;;;-146.73;61.68;45703.63;6207175;23;20032;-96
2023/01/08 04:17:50;;;;;;;12.65;2.28;;;;;;;-146.73;61.54;45681.91;6179390;23;20470;-95
2023/01/08 04:20:16;;;;;;;12.98;1.60;;;;;;;-146.73;61.27;45733.19;6206948;23;20004;-95
2023/01/08 04:22:41;;;;;;;10.32;1.80;;;;;;;-146.73;60.72;45786.47;6180735;23;20062;-94
2023/01/08 04:25:07;;;;;;;10.15;1.48;;;;;;;-146.73;58.63;45770.69;6206193;23;20011;-93
2023/01/08 04:27:33;;;;;;;8.93;1.83;;;;;;;-146.73;60.14;45743.06;6178863;23;20024;-95
2023/01/08 04:29:59;;;;;;;11.73;1.55;;;;;;;-146.73;60.01;45717.41;6179086;23;20001;-95
2023/01/08 04:32:24;;;;;;;11.20;1.52;;;;;;;-146.73;59.79;45743.06;6180420;23;20013;-95
2023/01/08 04:34:50;;;;;;;10.25;1.63;;;;;;;-146.73;59.39;45786.47;6180932;23;20008;-94
2023/01/08 04:37:15;;;;;;;8.48;1.27;;;;;;;-146.73;59.71;45766.75;6181672;23;20028;-94
2023/01/08 04:39:41;;;;;;;10.52;1.83;;;;;;;-146.73;59.84;45707.56;6181553;23;20004;-94
2023/01/08 04:42:06;;;;;;;14.15;2.05;;;;;;;-146.73;60.22;45820.00;6181786;23;20000;-94
2023/01/08 04:44:31;;;;;;;10.98;1.50;;;;;;;-146.73;59.55;45723.34;6181394;23;20132;-94
2023/01/08 04:46:57;;;;;;;8.30;1.67;;;;;;;-146.73;59.45;45764.78;6180601;23;20005;-95
2023/01/08 04:49:25;;;;;;;10.98;1.65;;;;;;;-146.73;58.76;45745.03;6180780;23;20066;-96
2023/01/08 04:51:51;;;;;;;12.63;2.10;;;;;;;-146.73;58.64;45737.16;6181983;23;20000;-94
2023/01/08 04:54:16;;;;;;;8.55;1.27;;;;;;;-146.73;59.59;45737.16;6180361;23;20016;-95
2023/01/08 04:56:42;;;;;;;12.65;1.38;;;;;;;-146.73;60.04;45737.16;6181085;23;19996;-94
2023/01/08 04:59:07;;;;;;;9.02;1.50;;;;;;;-146.73;59.19;45770.69;6207491;23;20405;-95
2023/01/08 05:01:33;;;;;;;6.65;1.38;;;;;;;-146.73;57.95;45794.34;6181488;23;20622;-94
2023/01/08 05:04:00;;;;;;;6.38;1.10;;;;;;;-146.73;58.68;45754.91;6161687;23;20025;-95
2023/01/08 05:06:28;;;;;;;8.85;2.03;;;;;;;-146.73;59.38;45719.41;6146590;23;20022;-94
2023/01/08 05:08:53;;;;;;;10.95;1.30;;;;;;;-146.73;59.76;45711.50;6146035;23;20013;-95
2023/01/08 05:11:19;;;;;;;7.28;1.10;;;;;;;-146.73;57.82;45762.78;6170633;23;20032;-94
2023/01/08 05:13:49;;;;;;;7.72;1.42;;;;;;;-146.73;58.90;45743.06;6144824;23;20041;-93
2023/01/08 05:16:16;;;;;;;10.65;1.42;;;;;;;-146.73;58.36;45768.72;6170996;23;20053;-95
2023/01/08 05:18:42;;;;;;;10.85;1.58;;;;;;;-146.73;58.67;45747.00;6146058;23;20092;-95
2023/01/08 05:21:07;;;;;;;8.55;1.38;;;;;;;-146.73;58.62;45747.00;6148158;23;20012;-95
2023/01/08 05:23:33;;;;;;;7.78;1.10;;;;;;;-146.73;59.86;45685.84;6170601;23;20001;-96
2023/01/08 05:26:00;;;;;;;5.38;0.75;;;;;;;-146.73;58.21;45766.75;6146867;23;20009;-94
2023/01/08 05:28:26;;;;;;;10.10;1.13;;;;;;;-146.73;58.17;45747.00;6169181;23;20005;-96
2023/01/08 05:30:52;;;;;;;5.68;1.00;;;;;;;-146.73;59.59;45727.28;6146539;23;20173;-95
2023/01/08 05:33:18;;;;;;;10.65;1.10;;;;;;;-146.73;58.95;45758.84;6146458;23;20103;-94
2023/01/08 05:35:44;;;;;;;11.48;1.85;;;;;;;-146.73;58.42;45743.06;6146140;23;20018;-94
2023/01/08 05:38:09;;;;;;;9.48;1.60;;;;;;;-146.73;58.78;45758.84;6147732;23;20012;-94
2023/01/08 05:40:35;;;;;;;11.18;1.70;;;;;;;-146.73;58.93;45750.97;6145825;23;20093;-95
2023/01/08 05:43:01;;;;;;;10.90;1.38;;;;;;;-146.73;59.47;45750.97;6148119;23;20013;-94
2023/01/08 05:45:27;;;;;;;7.30;1.10;;;;;;;-146.73;59.31;45745.03;6146156;23;20002;-95
2023/01/08 05:47:53;;;;;;;9.55;1.13;;;;;;;-146.73;58.02;45792.38;6148501;23;20365;-95
2023/01/08 05:50:18;;;;;;;10.90;1.50;;;;;;;-146.73;58.11;45762.78;6172347;23;20761;-95
2023/01/08 05:52:44;;;;;;;9.18;1.10;;;;;;;-146.73;59.34;45733.19;6172445;23;20013;-95
2023/01/08 05:55:10;;;;;;;5.05;0.75;;;;;;;-146.73;58.41;45758.84;6147628;23;20018;-96
2023/01/08 05:57:35;;;;;;;3.20;0.70;;;;;;;-146.73;58.92;45758.84;6171874;23;20009;-94
2023/01/08 06:00:01;;;;;;;6.57;0.82;;;;;;;-146.73;59.95;45701.63;6171569;23;20009;-94
2023/01/08 06:02:27;;;;;;;5.65;0.55;;;;;;;-146.73;60.21;45713.47;6146122;23;20051;-96
2023/01/08 06:04:53;;;;;;;5.10;0.70;;;;;;;-146.73;59.85;45717.41;6145927;23;20021;-95
2023/01/08 06:07:18;;;;;;;4.65;0.75;;;;;;;-146.73;58.69;45733.19;6147584;23;20756;-95
2023/01/08 06:09:44;;;;;;;4.05;0.50;;;;;;;-146.73;58.54;45790.41;6145608;23;20347;-94
2023/01/08 06:12:09;;;;;;;4.68;0.73;;;;;;;-146.73;58.10;45743.06;6146766;23;20112;-95
2023/01/08 06:14:35;;;;;;;3.25;0.63;;;;;;;-146.73;59.99;45719.41;6146480;23;20008;-95
2023/01/08 06:17:00;;;;;;;5.07;0.70;;;;;;;-146.73;58.84;45743.06;6146571;23;20005;-95
2023/01/08 06:19:25;;;;;;;6.95;0.82;;;;;;;-146.73;60.98;45679.94;6146297;23;20041;-95
2023/01/08 06:21:55;;;;;;;6.60;0.80;;;;;;;-146.73;59.62;45709.53;6146537;23;20013;-94
2023/01/08 06:24:20;;;;;;;5.45;0.82;;;;;;;-146.73;60.69;45695.72;6147108;23;20521;-95
2023/01/08 06:26:46;;;;;;;3.65;0.82;;;;;;;-146.73;61.13;45685.84;6145716;23;20009;-94
2023/01/08 06:29:11;;;;;;;3.92;0.70;;;;;;;-146.73;60.85;45739.13;6148295;23;20303;-96
2023/01/08 06:31:37;;;;;;;5.93;0.70;;;;;;;-146.73;61.07;45713.47;6146194;23;20013;-96
2023/01/08 06:34:02;;;;;;;6.13;0.70;;;;;;;-146.73;60.87;45719.41;6148920;23;20085;-95
2023/01/08 06:36:28;;;;;;;4.13;0.88;;;;;;;-146.73;60.02;45693.75;6148860;23;20009;-94
2023/01/08 06:38:54;;;;;;;2.78;0.68;;;;;;;-146.73;60.24;45707.56;6149253;23;20096;-96
2023/01/08 06:41:20;;;;;;;5.78;0.65;;;;;;;-146.73;59.77;45723.34;6151768;23;20025;-95
2023/01/08 06:43:46;;;;;;;3.15;0.60;;;;;;;-146.73;58.84;45727.28;6149148;23;20021;-95
2023/01/08 06:46:11;;;;;;;6.32;0.80;;;;;;;-146.73;61.67;45658.25;6148477;23;20001;-96
2023/01/08 06:48:37;;;;;;;2.92;0.43;;;;;;;-146.73;61.44;45668.09;6149425;23;20100;-93
2023/01/08 06:51:03;;;;;;;0.77;0.20;;;;;;;-146.73;60.38;45676.00;6150636;23;20001;-95
2023/01/08 06:53:29;;;;;;;2.78;0.47;;;;;;;-146.73;59.12;45703.63;6148429;23;20005;-94
2023/01/08 06:55:57;;;;;;;1.85;0.22;;;;;;;-146.73;59.36;45699.66;6147421;23;20017;-95
2023/01/08 06:58:27;;;;;;;1.58;0.20;;;;;;;-146.73;59.60;45664.16;6148245;23;20017;-95
2023/01/08 07:00:57;;;;;;;1.02;0.20;;;;;;;-146.73;57.08;45806.19;6148500;23;20097;-96
2023/01/08 07:03:23;;;;;;;2.30;0.40;;;;;;;-146.73;56.96;45770.69;6160435;23;20012;-94
2023/01/08 07:05:49;;;;;;;2.75;0.30;;;;;;;-146.73;58.98;45733.19;6209207;23;20008;-96
2023/01/08 07:08:16;;;;;;;4.55;0.45;;;;;;;-146.73;59.05;45745.03;6210461;23;20138;-95
2023/01/08 07:10:43;;;;;;;2.85;0.50;;;;;;;-146.73;57.36;45766.75;6183057;23;20051;-96
2023/01/08 07:13:09;;;;;;;5.50;0.60;;;;;;;-146.73;58.82;45685.84;6182216;23;20053;-94
2023/01/08 07:15:41;;;;;;;1.77;0.38;;;;;;;-146.73;57.94;45768.72;6207872;23;20084;-95
2023/01/08 07:18:08;;;;;;;0.33;0.20;;;;;;;-146.73;57.86;45707.56;6183158;23;20016;-96
2023/01/08 07:20:34;;;;;;;1.60;0.22;;;;;;;-146.73;58.22;45745.03;6182234;23;20118;-95
2023/01/08 07:23:05;;;;;;;0.73;0.20;;;;;;;-146.73;55.08;45816.06;6181688;23;20008;-93
2023/01/08 07:25:31;;;;;;;1.75;0.25;;;;;;;-146.73;57.30;45747.00;6178678;23;20525;-93
2023/01/08 07:27:57;;;;;;;2.35;0.30;;;;;;;-146.73;56.07;45764.78;6207775;23;20059;-93
2023/01/08 07:30:23;;;;;;;0.90;0.20;;;;;;;-146.73;57.00;45687.84;6180728;23;20415;-92
2023/01/08 07:32:49;;;;;;;0.65;0.20;;;;;;;-146.73;56.72;45701.63;6208103;23;20336;-95
2023/01/08 07:35:14;;;;;;;7.57;0.40;;;;;;;-146.73;57.38;45719.41;6207574;23;20004;-94
2023/01/08 07:37:41;;;;;;;11.15;1.00;;;;;;;-146.73;55.34;45788.44;6180475;23;20015;-94
2023/01/08 07:40:11;;;;;;;1.48;0.30;;;;;;;-146.73;56.46;45762.78;6181680;23;20012;-94
2023/01/08 07:42:37;;;;;;;1.60;0.20;;;;;;;-146.73;53.88;45912.72;6183003;23;20008;-92
2023/01/08 07:45:03;;;;;;;1.10;0.20;;;;;;;-146.73;54.92;45794.34;6207738;23;20008;-94
2023/01/08 07:47:29;;;;;;;1.50;0.32;;;;;;;-146.73;55.99;45776.59;6180764;23;20019;-94
2023/01/08 07:49:54;;;;;;;0.63;0.20;;;;;;;-146.73;56.51;45780.56;6181422;23;20009;-93
2023/01/08 07:52:20;;;;;;;1.23;0.28;;;;;;;-146.73;55.94;45812.13;6181246;23;20059;-94
2023/01/08 07:54:45;;;;;;;3.40;0.47;;;;;;;-146.73;56.16;45778.56;6208582;23;20054;-94
2023/01/08 07:57:10;;;;;;;3.08;0.40;;;;;;;-146.73;54.48;45808.16;6182448;23;20023;-94
2023/01/08 07:59:36;;;;;;;4.85;0.93;;;;;;;-146.73;55.46;45806.19;6181649;23;20078;-94
2023/01/08 08:02:02;;;;;;;2.10;0.25;;;;;;;-146.73;55.00;45776.59;6181954;23;20008;-93
2023/01/08 08:04:27;;;;;;;0.15;0.15;;;;;;;-146.73;54.72;45829.88;6179834;23;20028;-95
2023/01/08 08:06:53;;;;;;;5.53;0.60;;;;;;;-146.73;54.62;45806.19;6178710;23;20004;-93
2023/01/08 08:09:19;;;;;;;3.97;0.68;;;;;;;-146.73;54.87;45833.81;6203707;23;20320;-93
2023/01/08 08:11:45;;;;;;;6.13;0.40;;;;;;;-146.73;54.49;45808.16;6177247;23;20016;-94
2023/01/08 08:14:10;;;;;;;3.30;0.60;;;;;;;-146.73;57.53;45707.56;6177773;23;20556;-94
2023/01/08 08:16:36;;;;;;;1.90;0.32;;;;;;;-146.73;58.49;45727.28;6177493;23;20008;-93
2023/01/08 08:19:01;;;;;;;2.88;0.52;;;;;;;-146.73;55.70;45747.00;6177236;23;20476;-94
2023/01/08 08:21:28;;;;;;;2.97;0.63;;;;;;;-146.73;56.46;45790.41;6176855;23;20005;-94
2023/01/08 08:23:54;;;;;;;2.90;0.70;;;;;;;-146.73;55.07;45792.38;6176898;23;20046;-93
2023/01/08 08:26:20;;;;;;;5.25;0.90;;;;;;;-146.73;56.10;45766.75;6206210;23;20013;-94
2023/01/08 08:28:45;;;;;;;5.93;1.10;;;;;;;-146.73;56.43;45762.78;6178311;23;20009;-94
2023/01/08 08:31:11;;;;;;;4.05;0.90;;;;;;;-146.73;56.53;45774.63;6177299;23;20008;-94
2023/01/08 08:33:36;;;;;;;6.18;1.55;;;;;;;-146.73;57.76;45729.25;6178198;23;20489;-94
2023/01/08 08:36:02;;;;;;;5.85;1.27;;;;;;;-146.73;57.64;45725.31;6204211;23;20069;-94
2023/01/08 08:38:28;;;;;;;4.65;1.20;;;;;;;-146.73;57.46;45756.88;6206908;23;20004;-94
2023/01/08 08:40:53;;;;;;;5.53;1.15;;;;;;;-146.73;57.39;45758.84;6180710;23;20038;-93
2023/01/08 08:43:19;;;;;;;7.93;1.60;;;;;;;-146.73;56.03;45814.09;6180291;23;20091;-94
2023/01/08 08:45:44;;;;;;;5.68;1.75;;;;;;;-146.73;58.17;45715.44;6179993;23;20031;-94
2023/01/08 08:48:10;;;;;;;8.93;2.00;;;;;;;-146.73;56.43;45772.66;6180146;23;20078;-94
2023/01/08 08:50:36;;;;;;;6.78;1.67;;;;;;;-146.73;57.52;45778.56;6180785;23;20008;-93
2023/01/08 08:53:04;;;;;;;6.47;1.85;;;;;;;-146.73;57.00;45749.00;6178964;23;20016;-93
2023/01/08 08:55:31;;;;;;;8.10;1.85;;;;;;;-146.73;57.79;45756.88;6179318;23;19997;-93
2023/01/08 08:58:09;;;;;;;6.63;1.90;;;;;;;-146.73;58.02;45707.56;6180930;23;20028;-94
2023/01/08 09:00:36;;;;;;;7.75;1.80;;;;;;;-146.73;57.96;45709.53;6208330;23;20407;-94
2023/01/08 09:03:02;;;;;;;8.00;1.90;;;;;;;-146.73;58.64;45729.25;6181781;23;20008;-93
2023/01/08 09:05:27;;;;;;;8.52;1.90;;;;;;;-146.73;59.82;45693.75;6207661;23;20011;-93
2023/01/08 09:07:56;;;;;;;9.30;1.90;;;;;;;-146.73;59.96;45705.59;6182734;23;20040;-93
2023/01/08 09:10:22;;;;;;;6.53;1.83;;;;;;;-146.73;60.38;45685.84;6208330;23;20024;-92
2023/01/08 09:12:48;;;;;;;7.80;1.70;;;;;;;-146.73;58.04;45806.19;6178748;23;20008;-93
2023/01/08 09:15:13;;;;;;;6.05;1.50;;;;;;;-146.73;58.15;45741.09;6204004;23;20001;-92
2023/01/08 09:17:39;;;;;;;8.48;1.95;;;;;;;-146.73;60.18;45695.72;6177932;23;20039;-92
2023/01/08 09:20:05;;;;;;;8.73;1.80;;;;;;;-146.73;59.29;45745.03;6178825;23;20175;-93
2023/01/08 09:22:31;;;;;;;7.10;1.60;;;;;;;-146.73;60.29;45679.94;6205559;23;20008;-92
2023/01/08 09:24:56;;;;;;;9.00;1.60;;;;;;;-146.73;58.61;45733.19;6180590;23;20706;-91
2023/01/08 09:27:25;;;;;;;6.47;1.30;;;;;;;-146.73;59.33;45735.19;6205436;23;20493;-95
2023/01/08 09:29:50;;;;;;;11.07;1.67;;;;;;;-146.73;58.08;45750.97;6207299;23;20095;-93
2023/01/08 09:32:16;;;;;;;8.15;1.55;;;;;;;-146.73;59.49;45715.44;6181563;23;20103;-94
2023/01/08 09:34:44;;;;;;;7.20;1.50;;;;;;;-146.73;59.47;45723.34;6180747;23;20016;-91
2023/01/08 09:37:09;;;;;;;7.80;1.27;;;;;;;-146.73;59.76;45739.13;6181637;23;20012;-92
2023/01/08 09:39:35;;;;;;;6.47;1.48;;;;;;;-146.73;57.33;45760.81;6208675;23;20000;-92
2023/01/08 09:42:03;;;;;;;8.00;1.42;;;;;;;-146.73;58.22;45786.47;6180458;23;20846;-96
2023/01/08 09:44:36;;;;;;;8.73;1.60;;;;;;;-146.73;60.04;45670.06;6180195;23;20016;-88
2023/01/08 09:47:02;;;;;;;5.32;1.30;;;;;;;-146.73;58.18;45778.56;6208237;23;20514;-92
2023/01/08 09:49:41;;;;;;;7.93;1.48;;;;;;;-146.73;58.29;45782.53;6182658;23;20770;-91
2023/01/08 09:52:11;;;;;;;7.85;1.42;;;;;;;-146.73;58.55;45741.09;6209173;23;20017;-91
2023/01/08 09:54:37;;;;;;;5.93;1.35;;;;;;;-146.73;58.13;45790.41;6180783;23;20016;-91
2023/01/08 09:57:03;;;;;;;9.23;1.20;;;;;;;-146.73;58.68;45723.34;6179939;23;20092;-93
2023/01/08 09:59:31;;;;;;;8.05;1.33;;;;;;;-146.73;58.71;45782.53;6203865;23;20023;-92
2023/01/08 10:01:56;;;;;;;6.22;1.60;;;;;;;-146.73;58.04;45770.69;6181409;23;20099;-92
2023/01/08 10:04:25;;;;;;;7.03;1.45;;;;;;;-146.73;58.33;45756.88;6178152;23;20443;-92
2023/01/08 10:06:59;;;;;;;6.78;1.10;;;;;;;-146.73;59.26;45695.72;6180301;23;20015;-92
2023/01/08 10:09:30;;;;;;;7.90;1.38;;;;;;;-146.73;58.61;45743.06;6179706;23;20012;-92
2023/01/08 10:11:59;;;;;;;7.13;1.15;;;;;;;-146.73;58.28;45747.00;6180243;23;20095;-92
2023/01/08 10:14:29;;;;;;;9.45;1.20;;;;;;;-146.73;57.84;45772.66;6181835;23;20284;-91
2023/01/08 10:17:11;;;;;;;8.43;1.33;;;;;;;-146.73;58.74;45741.09;6180638;23;20020;-93
2023/01/08 10:19:40;;;;;;;7.63;1.23;;;;;;;-146.73;58.06;45747.00;6180759;23;20017;-93
2023/01/08 10:22:17;;;;;;;7.43;1.27;;;;;;;-146.73;57.01;45762.78;6182375;23;20409;-93
2023/01/08 10:24:43;;;;;;;6.78;1.30;;;;;;;-146.73;59.12;45703.63;6182695;23;20434;-93
2023/01/08 10:27:22;;;;;;;8.27;1.40;;;;;;;-146.73;60.47;45707.56;6179645;23;20430;-91
2023/01/08 10:30:03;;;;;;;7.53;1.63;;;;;;;-146.73;58.93;45750.97;6178255;23;20013;-92
2023/01/08 10:32:35;;;;;;;6.97;1.23;;;;;;;-146.73;59.74;45717.41;6174003;23;20024;-92
2023/01/08 10:35:15;;;;;;;9.30;1.65;;;;;;;-146.73;60.47;45711.50;6203927;23;20634;-92
2023/01/08 10:37:42;;;;;;;11.32;1.60;;;;;;;-146.73;58.67;45747.00;6204979;23;20024;-94
2023/01/08 10:40:30;;;;;;;9.50;1.58;;;;;;;-146.73;59.07;45747.00;6178794;23;20015;-94
2023/01/08 10:43:04;;;;;;;8.20;1.23;;;;;;;-146.73;57.63;45812.13;6179218;23;20061;-93
2023/01/08 10:45:30;;;;;;;11.88;1.48;;;;;;;-146.73;57.80;45802.25;6206352;23;20000;-93
2023/01/08 10:48:03;;;;;;;8.75;1.20;;;;;;;-146.73;58.85;45743.06;6180312;23;20027;-93
2023/01/08 10:50:31;;;;;;;7.43;1.30;;;;;;;-146.73;58.65;45778.56;6207040;23;20009;-93
2023/01/08 10:53:02;;;;;;;10.05;1.48;;;;;;;-146.73;57.93;45798.31;6177502;23;20004;-93
2023/01/08 10:55:37;;;;;;;8.75;1.77;;;;;;;-146.73;59.56;45705.59;6181933;23;20015;-94
2023/01/08 10:58:13;;;;;;;10.80;1.75;;;;;;;-146.73;61.33;45713.47;6208224;23;20493;-94
2023/01/08 11:00:39;;;;;;;8.68;1.38;;;;;;;-146.73;60.97;45681.91;6208554;23;20016;-94
2023/01/08 11:03:07;;;;;;;11.57;1.70;;;;;;;-146.73;61.04;45630.63;6179706;23;20026;-94
2023/01/08 11:05:38;;;;;;;11.80;2.10;;;;;;;-146.73;60.73;45697.69;6205101;23;20015;-93
2023/01/08 11:08:18;;;;;;;8.98;1.90;;;;;;;-146.73;61.24;45713.47;6178700;23;20008;-94
2023/01/08 11:10:56;;;;;;;9.75;1.60;;;;;;;-146.73;61.40;45691.78;6176583;23;20684;-93
2023/01/08 11:13:22;;;;;;;11.80;1.90;;;;;;;-146.73;60.81;45715.44;6177962;23;20008;-93
2023/01/08 11:16:02;;;;;;;9.02;2.03;;;;;;;-146.73;60.40;45699.66;6179188;23;20012;-94
2023/01/08 11:18:28;;;;;;;9.88;1.58;;;;;;;-146.73;61.15;45749.00;6206996;23;20020;-95
2023/01/08 11:21:09;;;;;;;9.77;1.73;;;;;;;-146.73;61.92;45754.91;6208177;23;20012;-94
2023/01/08 11:23:35;;;;;;;12.10;2.00;;;;;;;-146.73;61.01;45745.03;6209160;23;20434;-93
2023/01/08 11:26:13;;;;;;;13.40;2.38;;;;;;;-146.73;60.16;45723.34;6179177;23;20009;-93
2023/01/08 11:28:49;;;;;;;12.98;1.80;;;;;;;-146.73;59.22;45784.50;6201632;23;20518;-94